Taucha Airport EDCT

Flugplatz Daten

Name: Taucha Airport

Ident: EDCT

Lat: 51,39500046

Long: 12,53694439

Platzhöhe: 492 ft

IataCode:

City: Taucha

Homepage: http://www.fclt.de/

Metar

2021/01/03 17:48
MMPQ 031748Z 00000KT 4SM OVC010 24/22 A2995 RMK 8/6// VSBTY REDCT SOUHT

Taf

Gewünschte Webcam nicht vorhanden? Dann fügen Sie eine hinzu. Sie wird dann so schnell wie möglich freigeschaltet
Url: Title: